sensor_id;sensor_type;location;lat;lon;timestamp;P1;durP1;ratioP1;P2;durP2;ratioP2
58472;SDS011;44775;51.564;5.460;2023-07-31T00:00:56;24.40;;;10.45;;
58472;SDS011;44775;51.564;5.460;2023-07-31T00:03:21;27.42;;;10.55;;
58472;SDS011;44775;51.564;5.460;2023-07-31T00:05:47;30.58;;;10.63;;
58472;SDS011;44775;51.564;5.460;2023-07-31T00:08:12;25.88;;;10.23;;
58472;SDS011;44775;51.564;5.460;2023-07-31T00:10:37;27.83;;;9.85;;
58472;SDS011;44775;51.564;5.460;2023-07-31T00:13:03;26.13;;;9.98;;
58472;SDS011;44775;51.564;5.460;2023-07-31T00:15:28;26.98;;;9.80;;
58472;SDS011;44775;51.564;5.460;2023-07-31T00:17:53;23.50;;;8.75;;
58472;SDS011;44775;51.564;5.460;2023-07-31T00:20:19;22.42;;;8.02;;
58472;SDS011;44775;51.564;5.460;2023-07-31T00:22:44;27.10;;;9.25;;
58472;SDS011;44775;51.564;5.460;2023-07-31T00:25:09;23.83;;;8.68;;
58472;SDS011;44775;51.564;5.460;2023-07-31T00:27:35;23.52;;;8.85;;
58472;SDS011;44775;51.564;5.460;2023-07-31T00:30:00;22.65;;;7.78;;
58472;SDS011;44775;51.564;5.460;2023-07-31T00:32:25;20.10;;;8.10;;
58472;SDS011;44775;51.564;5.460;2023-07-31T00:34:51;24.52;;;8.88;;
58472;SDS011;44775;51.564;5.460;2023-07-31T00:37:16;25.30;;;7.75;;
58472;SDS011;44775;51.564;5.460;2023-07-31T00:39:41;20.00;;;7.90;;
58472;SDS011;44775;51.564;5.460;2023-07-31T00:42:07;23.25;;;7.97;;
58472;SDS011;44775;51.564;5.460;2023-07-31T00:44:32;19.10;;;7.53;;
58472;SDS011;44775;51.564;5.460;2023-07-31T00:46:58;21.13;;;7.68;;
58472;SDS011;44775;51.564;5.460;2023-07-31T00:49:24;16.42;;;6.38;;
58472;SDS011;44775;51.564;5.460;2023-07-31T00:51:50;23.35;;;6.93;;
58472;SDS011;44775;51.564;5.460;2023-07-31T00:54:15;20.33;;;7.55;;
58472;SDS011;44775;51.564;5.460;2023-07-31T00:56:42;19.88;;;6.70;;
58472;SDS011;44775;51.564;5.460;2023-07-31T00:59:10;19.83;;;7.03;;
58472;SDS011;44775;51.564;5.460;2023-07-31T01:01:35;20.67;;;6.72;;
58472;SDS011;44775;51.564;5.460;2023-07-31T01:04:01;19.73;;;6.85;;
58472;SDS011;44775;51.564;5.460;2023-07-31T01:06:30;24.15;;;6.72;;
58472;SDS011;44775;51.564;5.460;2023-07-31T01:09:03;22.38;;;6.55;;
58472;SDS011;44775;51.564;5.460;2023-07-31T01:11:40;20.95;;;6.85;;
58472;SDS011;44775;51.564;5.460;2023-07-31T01:14:11;19.77;;;5.97;;
58472;SDS011;44775;51.564;5.460;2023-07-31T01:16:36;16.25;;;5.63;;
58472;SDS011;44775;51.564;5.460;2023-07-31T01:19:02;22.42;;;6.88;;
58472;SDS011;44775;51.564;5.460;2023-07-31T01:24:23;15.75;;;5.95;;
58472;SDS011;44775;51.564;5.460;2023-07-31T01:29:45;18.70;;;6.47;;
58472;SDS011;44775;51.564;5.460;2023-07-31T01:32:14;18.13;;;5.85;;
58472;SDS011;44775;51.564;5.460;2023-07-31T01:34:40;19.98;;;5.85;;
58472;SDS011;44775;51.564;5.460;2023-07-31T01:37:06;21.30;;;6.80;;
58472;SDS011;44775;51.564;5.460;2023-07-31T01:39:31;13.82;;;5.40;;
58472;SDS011;44775;51.564;5.460;2023-07-31T01:41:57;17.75;;;5.75;;
58472;SDS011;44775;51.564;5.460;2023-07-31T01:44:22;17.33;;;5.50;;
58472;SDS011;44775;51.564;5.460;2023-07-31T01:46:48;19.77;;;5.88;;
58472;SDS011;44775;51.564;5.460;2023-07-31T01:49:13;19.55;;;6.47;;
58472;SDS011;44775;51.564;5.460;2023-07-31T01:51:38;20.85;;;6.05;;
58472;SDS011;44775;51.564;5.460;2023-07-31T01:54:03;17.88;;;6.03;;
58472;SDS011;44775;51.564;5.460;2023-07-31T01:56:29;18.15;;;5.95;;
58472;SDS011;44775;51.564;5.460;2023-07-31T01:58:54;18.48;;;5.25;;
58472;SDS011;44775;51.564;5.460;2023-07-31T02:01:20;17.52;;;5.28;;
58472;SDS011;44775;51.564;5.460;2023-07-31T02:03:45;22.10;;;5.88;;
58472;SDS011;44775;51.564;5.460;2023-07-31T02:06:10;19.92;;;6.05;;
58472;SDS011;44775;51.564;5.460;2023-07-31T02:08:36;18.73;;;6.20;;
58472;SDS011;44775;51.564;5.460;2023-07-31T02:11:01;20.13;;;5.82;;
58472;SDS011;44775;51.564;5.460;2023-07-31T02:13:27;17.20;;;5.95;;
58472;SDS011;44775;51.564;5.460;2023-07-31T02:15:52;19.02;;;6.57;;
58472;SDS011;44775;51.564;5.460;2023-07-31T02:18:17;20.10;;;5.72;;
58472;SDS011;44775;51.564;5.460;2023-07-31T02:20:43;21.60;;;6.57;;
58472;SDS011;44775;51.564;5.460;2023-07-31T02:23:11;20.65;;;6.25;;
58472;SDS011;44775;51.564;5.460;2023-07-31T02:25:36;17.75;;;5.82;;
58472;SDS011;44775;51.564;5.460;2023-07-31T02:28:02;18.35;;;5.82;;
58472;SDS011;44775;51.564;5.460;2023-07-31T02:30:27;21.42;;;6.00;;
58472;SDS011;44775;51.564;5.460;2023-07-31T02:32:52;18.13;;;6.05;;
58472;SDS011;44775;51.564;5.460;2023-07-31T02:35:18;16.15;;;6.05;;
58472;SDS011;44775;51.564;5.460;2023-07-31T02:37:43;15.73;;;5.45;;
58472;SDS011;44775;51.564;5.460;2023-07-31T02:40:09;19.73;;;6.20;;
58472;SDS011;44775;51.564;5.460;2023-07-31T02:42:34;20.98;;;6.60;;
58472;SDS011;44775;51.564;5.460;2023-07-31T02:45:00;19.98;;;6.28;;
58472;SDS011;44775;51.564;5.460;2023-07-31T02:47:25;21.58;;;5.82;;
58472;SDS011;44775;51.564;5.460;2023-07-31T02:49:50;19.15;;;6.72;;
58472;SDS011;44775;51.564;5.460;2023-07-31T02:52:16;17.80;;;5.85;;
58472;SDS011;44775;51.564;5.460;2023-07-31T02:54:41;23.80;;;6.70;;
58472;SDS011;44775;51.564;5.460;2023-07-31T02:57:06;19.90;;;5.80;;
58472;SDS011;44775;51.564;5.460;2023-07-31T02:59:31;15.63;;;5.45;;
58472;SDS011;44775;51.564;5.460;2023-07-31T03:01:57;19.13;;;6.82;;
58472;SDS011;44775;51.564;5.460;2023-07-31T03:04:22;23.50;;;7.03;;
58472;SDS011;44775;51.564;5.460;2023-07-31T03:06:48;17.13;;;6.03;;
58472;SDS011;44775;51.564;5.460;2023-07-31T03:09:13;18.80;;;6.50;;
58472;SDS011;44775;51.564;5.460;2023-07-31T03:11:38;22.52;;;6.50;;
58472;SDS011;44775;51.564;5.460;2023-07-31T03:14:04;18.45;;;6.30;;
58472;SDS011;44775;51.564;5.460;2023-07-31T03:16:29;19.55;;;6.53;;
58472;SDS011;44775;51.564;5.460;2023-07-31T03:18:54;18.08;;;5.93;;
58472;SDS011;44775;51.564;5.460;2023-07-31T03:21:20;17.00;;;5.85;;
58472;SDS011;44775;51.564;5.460;2023-07-31T03:23:45;16.27;;;6.10;;
58472;SDS011;44775;51.564;5.460;2023-07-31T03:26:10;19.42;;;5.95;;
58472;SDS011;44775;51.564;5.460;2023-07-31T03:28:36;18.10;;;5.95;;
58472;SDS011;44775;51.564;5.460;2023-07-31T03:31:01;22.27;;;6.07;;
58472;SDS011;44775;51.564;5.460;2023-07-31T03:33:27;19.33;;;6.43;;
58472;SDS011;44775;51.564;5.460;2023-07-31T03:35:52;24.13;;;6.50;;
58472;SDS011;44775;51.564;5.460;2023-07-31T03:38:18;18.83;;;5.55;;
58472;SDS011;44775;51.564;5.460;2023-07-31T03:40:44;20.52;;;6.18;;
58472;SDS011;44775;51.564;5.460;2023-07-31T03:43:10;20.25;;;6.18;;
58472;SDS011;44775;51.564;5.460;2023-07-31T03:45:36;21.40;;;5.97;;
58472;SDS011;44775;51.564;5.460;2023-07-31T03:48:01;21.75;;;6.57;;
58472;SDS011;44775;51.564;5.460;2023-07-31T03:50:27;19.58;;;5.75;;
58472;SDS011;44775;51.564;5.460;2023-07-31T03:52:52;19.05;;;5.60;;
58472;SDS011;44775;51.564;5.460;2023-07-31T03:55:18;16.60;;;5.65;;
58472;SDS011;44775;51.564;5.460;2023-07-31T03:57:43;14.98;;;5.07;;
58472;SDS011;44775;51.564;5.460;2023-07-31T04:00:09;19.45;;;5.80;;
58472;SDS011;44775;51.564;5.460;2023-07-31T04:02:34;15.02;;;5.45;;
58472;SDS011;44775;51.564;5.460;2023-07-31T04:05:00;20.42;;;5.57;;
58472;SDS011;44775;51.564;5.460;2023-07-31T04:07:25;17.17;;;5.88;;
58472;SDS011;44775;51.564;5.460;2023-07-31T04:09:50;20.05;;;5.68;;
58472;SDS011;44775;51.564;5.460;2023-07-31T04:12:16;18.27;;;5.95;;
58472;SDS011;44775;51.564;5.460;2023-07-31T04:14:41;18.73;;;5.60;;
58472;SDS011;44775;51.564;5.460;2023-07-31T04:17:06;17.15;;;5.75;;
58472;SDS011;44775;51.564;5.460;2023-07-31T04:19:32;22.05;;;6.40;;
58472;SDS011;44775;51.564;5.460;2023-07-31T04:21:57;19.27;;;6.07;;
58472;SDS011;44775;51.564;5.460;2023-07-31T04:24:22;23.88;;;6.38;;
58472;SDS011;44775;51.564;5.460;2023-07-31T04:26:50;16.65;;;5.93;;
58472;SDS011;44775;51.564;5.460;2023-07-31T04:29:16;17.77;;;5.72;;
58472;SDS011;44775;51.564;5.460;2023-07-31T04:31:42;14.85;;;4.88;;
58472;SDS011;44775;51.564;5.460;2023-07-31T04:34:07;18.33;;;5.80;;
58472;SDS011;44775;51.564;5.460;2023-07-31T04:36:33;18.88;;;5.65;;
58472;SDS011;44775;51.564;5.460;2023-07-31T04:38:58;10.93;;;4.25;;
58472;SDS011;44775;51.564;5.460;2023-07-31T04:41:24;21.05;;;6.28;;
58472;SDS011;44775;51.564;5.460;2023-07-31T04:43:49;13.45;;;5.40;;
58472;SDS011;44775;51.564;5.460;2023-07-31T04:46:14;19.15;;;5.50;;
58472;SDS011;44775;51.564;5.460;2023-07-31T04:48:40;17.98;;;5.78;;
58472;SDS011;44775;51.564;5.460;2023-07-31T04:51:05;19.83;;;5.63;;
58472;SDS011;44775;51.564;5.460;2023-07-31T04:53:30;17.88;;;5.90;;
58472;SDS011;44775;51.564;5.460;2023-07-31T04:55:56;18.13;;;6.07;;
58472;SDS011;44775;51.564;5.460;2023-07-31T04:58:21;17.67;;;6.28;;
58472;SDS011;44775;51.564;5.460;2023-07-31T05:00:46;18.05;;;6.03;;
58472;SDS011;44775;51.564;5.460;2023-07-31T05:03:12;14.68;;;6.13;;
58472;SDS011;44775;51.564;5.460;2023-07-31T05:05:37;17.67;;;6.28;;
58472;SDS011;44775;51.564;5.460;2023-07-31T05:08:02;17.67;;;6.13;;
58472;SDS011;44775;51.564;5.460;2023-07-31T05:10:28;20.25;;;6.40;;
58472;SDS011;44775;51.564;5.460;2023-07-31T05:12:53;16.25;;;5.97;;
58472;SDS011;44775;51.564;5.460;2023-07-31T05:15:18;15.20;;;6.20;;
58472;SDS011;44775;51.564;5.460;2023-07-31T05:17:44;18.30;;;6.10;;
58472;SDS011;44775;51.564;5.460;2023-07-31T05:20:09;15.05;;;6.13;;
58472;SDS011;44775;51.564;5.460;2023-07-31T05:22:35;18.70;;;7.03;;
58472;SDS011;44775;51.564;5.460;2023-07-31T05:25:01;18.38;;;6.57;;
58472;SDS011;44775;51.564;5.460;2023-07-31T05:27:26;16.90;;;7.30;;
58472;SDS011;44775;51.564;5.460;2023-07-31T05:29:51;16.45;;;5.97;;
58472;SDS011;44775;51.564;5.460;2023-07-31T05:32:16;16.17;;;6.72;;
58472;SDS011;44775;51.564;5.460;2023-07-31T05:34:42;18.70;;;6.82;;
58472;SDS011;44775;51.564;5.460;2023-07-31T05:37:07;14.63;;;6.55;;
58472;SDS011;44775;51.564;5.460;2023-07-31T05:39:35;12.75;;;5.97;;
58472;SDS011;44775;51.564;5.460;2023-07-31T05:42:00;10.27;;;5.97;;
58472;SDS011;44775;51.564;5.460;2023-07-31T05:44:25;11.05;;;5.68;;
58472;SDS011;44775;51.564;5.460;2023-07-31T05:46:51;9.18;;;5.72;;
58472;SDS011;44775;51.564;5.460;2023-07-31T05:49:16;12.73;;;5.25;;
58472;SDS011;44775;51.564;5.460;2023-07-31T05:51:41;12.98;;;4.90;;
58472;SDS011;44775;51.564;5.460;2023-07-31T05:54:06;10.32;;;5.00;;
58472;SDS011;44775;51.564;5.460;2023-07-31T05:56:32;11.23;;;5.10;;
58472;SDS011;44775;51.564;5.460;2023-07-31T05:58:59;11.05;;;4.57;;
58472;SDS011;44775;51.564;5.460;2023-07-31T06:01:24;11.35;;;5.35;;
58472;SDS011;44775;51.564;5.460;2023-07-31T06:03:49;9.48;;;4.65;;
58472;SDS011;44775;51.564;5.460;2023-07-31T06:06:15;10.80;;;4.68;;
58472;SDS011;44775;51.564;5.460;2023-07-31T06:08:40;7.75;;;4.10;;
58472;SDS011;44775;51.564;5.460;2023-07-31T06:11:06;9.88;;;4.88;;
58472;SDS011;44775;51.564;5.460;2023-07-31T06:13:33;8.98;;;5.00;;
58472;SDS011;44775;51.564;5.460;2023-07-31T06:15:59;7.43;;;3.92;;
58472;SDS011;44775;51.564;5.460;2023-07-31T06:18:24;7.47;;;4.30;;
58472;SDS011;44775;51.564;5.460;2023-07-31T06:20:49;8.40;;;4.22;;
58472;SDS011;44775;51.564;5.460;2023-07-31T06:23:18;9.43;;;4.88;;
58472;SDS011;44775;51.564;5.460;2023-07-31T06:25:44;7.05;;;4.00;;
58472;SDS011;44775;51.564;5.460;2023-07-31T06:28:09;6.80;;;3.80;;
58472;SDS011;44775;51.564;5.460;2023-07-31T06:30:35;6.57;;;4.30;;
58472;SDS011;44775;51.564;5.460;2023-07-31T06:33:00;7.35;;;4.50;;
58472;SDS011;44775;51.564;5.460;2023-07-31T06:35:25;6.10;;;4.35;;
58472;SDS011;44775;51.564;5.460;2023-07-31T06:37:51;6.75;;;4.40;;
58472;SDS011;44775;51.564;5.460;2023-07-31T06:40:16;7.78;;;4.30;;
58472;SDS011;44775;51.564;5.460;2023-07-31T06:42:42;7.57;;;4.60;;
58472;SDS011;44775;51.564;5.460;2023-07-31T06:45:07;6.78;;;4.75;;
58472;SDS011;44775;51.564;5.460;2023-07-31T06:47:33;7.05;;;4.97;;
58472;SDS011;44775;51.564;5.460;2023-07-31T06:49:58;7.10;;;5.18;;
58472;SDS011;44775;51.564;5.460;2023-07-31T06:52:23;8.95;;;5.35;;
58472;SDS011;44775;51.564;5.460;2023-07-31T06:55:00;7.68;;;5.10;;
58472;SDS011;44775;51.564;5.460;2023-07-31T06:59:52;8.87;;;4.57;;
58472;SDS011;44775;51.564;5.460;2023-07-31T07:02:18;7.55;;;4.80;;
58472;SDS011;44775;51.564;5.460;2023-07-31T07:04:43;8.90;;;4.82;;
58472;SDS011;44775;51.564;5.460;2023-07-31T07:07:08;6.18;;;4.65;;
58472;SDS011;44775;51.564;5.460;2023-07-31T07:09:33;7.55;;;4.78;;
58472;SDS011;44775;51.564;5.460;2023-07-31T07:11:59;8.10;;;4.95;;
58472;SDS011;44775;51.564;5.460;2023-07-31T07:14:24;6.60;;;4.70;;
58472;SDS011;44775;51.564;5.460;2023-07-31T07:16:52;6.85;;;4.63;;
58472;SDS011;44775;51.564;5.460;2023-07-31T07:19:18;6.47;;;4.80;;
58472;SDS011;44775;51.564;5.460;2023-07-31T07:21:43;5.45;;;4.35;;
58472;SDS011;44775;51.564;5.460;2023-07-31T07:24:08;6.85;;;4.50;;
58472;SDS011;44775;51.564;5.460;2023-07-31T07:26:33;6.63;;;4.65;;
58472;SDS011;44775;51.564;5.460;2023-07-31T07:28:59;5.45;;;3.97;;
58472;SDS011;44775;51.564;5.460;2023-07-31T07:31:27;6.22;;;4.65;;
58472;SDS011;44775;51.564;5.460;2023-07-31T07:33:52;5.13;;;4.32;;
58472;SDS011;44775;51.564;5.460;2023-07-31T07:36:18;6.85;;;4.68;;
58472;SDS011;44775;51.564;5.460;2023-07-31T07:38:43;6.57;;;4.90;;
58472;SDS011;44775;51.564;5.460;2023-07-31T07:41:08;6.72;;;4.82;;
58472;SDS011;44775;51.564;5.460;2023-07-31T07:43:34;7.43;;;4.35;;
58472;SDS011;44775;51.564;5.460;2023-07-31T07:45:59;7.20;;;5.22;;
58472;SDS011;44775;51.564;5.460;2023-07-31T07:48:24;7.40;;;5.20;;
58472;SDS011;44775;51.564;5.460;2023-07-31T07:50:50;7.43;;;4.85;;
58472;SDS011;44775;51.564;5.460;2023-07-31T07:53:16;8.30;;;5.50;;
58472;SDS011;44775;51.564;5.460;2023-07-31T07:55:41;7.60;;;5.82;;
58472;SDS011;44775;51.564;5.460;2023-07-31T07:58:07;10.20;;;6.00;;
58472;SDS011;44775;51.564;5.460;2023-07-31T08:00:33;9.10;;;6.13;;
58472;SDS011;44775;51.564;5.460;2023-07-31T08:02:58;8.57;;;5.97;;
58472;SDS011;44775;51.564;5.460;2023-07-31T08:05:23;7.43;;;5.70;;
58472;SDS011;44775;51.564;5.460;2023-07-31T08:07:49;11.18;;;6.03;;
58472;SDS011;44775;51.564;5.460;2023-07-31T08:10:14;7.95;;;5.50;;
58472;SDS011;44775;51.564;5.460;2023-07-31T08:12:39;9.93;;;6.13;;
58472;SDS011;44775;51.564;5.460;2023-07-31T08:15:05;8.20;;;5.90;;
58472;SDS011;44775;51.564;5.460;2023-07-31T08:17:31;11.90;;;6.78;;
58472;SDS011;44775;51.564;5.460;2023-07-31T08:19:56;10.25;;;6.80;;
58472;SDS011;44775;51.564;5.460;2023-07-31T08:22:23;8.30;;;5.97;;
58472;SDS011;44775;51.564;5.460;2023-07-31T08:24:49;12.02;;;6.40;;
58472;SDS011;44775;51.564;5.460;2023-07-31T08:27:14;10.75;;;6.15;;
58472;SDS011;44775;51.564;5.460;2023-07-31T08:29:39;9.20;;;6.15;;
58472;SDS011;44775;51.564;5.460;2023-07-31T08:32:05;8.73;;;6.22;;
58472;SDS011;44775;51.564;5.460;2023-07-31T08:34:30;9.52;;;6.10;;
58472;SDS011;44775;51.564;5.460;2023-07-31T08:36:56;10.27;;;6.25;;
58472;SDS011;44775;51.564;5.460;2023-07-31T08:39:21;10.13;;;6.25;;
58472;SDS011;44775;51.564;5.460;2023-07-31T08:41:47;12.40;;;6.45;;
58472;SDS011;44775;51.564;5.460;2023-07-31T08:44:12;9.20;;;5.85;;
58472;SDS011;44775;51.564;5.460;2023-07-31T08:46:40;10.10;;;6.95;;
58472;SDS011;44775;51.564;5.460;2023-07-31T08:49:05;11.75;;;6.40;;
58472;SDS011;44775;51.564;5.460;2023-07-31T08:51:33;10.63;;;6.93;;
58472;SDS011;44775;51.564;5.460;2023-07-31T08:54:00;5.93;;;4.40;;
58472;SDS011;44775;51.564;5.460;2023-07-31T08:56:26;10.52;;;7.10;;
58472;SDS011;44775;51.564;5.460;2023-07-31T08:58:53;11.15;;;6.70;;
58472;SDS011;44775;51.564;5.460;2023-07-31T09:01:20;11.60;;;6.93;;
58472;SDS011;44775;51.564;5.460;2023-07-31T09:03:46;10.70;;;6.88;;
58472;SDS011;44775;51.564;5.460;2023-07-31T09:06:12;11.60;;;7.63;;
58472;SDS011;44775;51.564;5.460;2023-07-31T09:08:40;15.07;;;7.03;;
58472;SDS011;44775;51.564;5.460;2023-07-31T09:11:07;11.95;;;7.43;;
58472;SDS011;44775;51.564;5.460;2023-07-31T09:13:34;19.52;;;7.88;;
58472;SDS011;44775;51.564;5.460;2023-07-31T09:15:59;13.80;;;7.18;;
58472;SDS011;44775;51.564;5.460;2023-07-31T09:18:24;13.68;;;7.47;;
58472;SDS011;44775;51.564;5.460;2023-07-31T09:21:05;13.93;;;7.38;;
58472;SDS011;44775;51.564;5.460;2023-07-31T09:23:40;11.35;;;6.65;;
58472;SDS011;44775;51.564;5.460;2023-07-31T09:28:35;12.27;;;7.15;;
58472;SDS011;44775;51.564;5.460;2023-07-31T09:31:00;13.48;;;7.18;;
58472;SDS011;44775;51.564;5.460;2023-07-31T09:33:25;10.30;;;5.95;;
58472;SDS011;44775;51.564;5.460;2023-07-31T09:35:51;10.18;;;5.63;;
58472;SDS011;44775;51.564;5.460;2023-07-31T09:38:16;11.52;;;6.63;;
58472;SDS011;44775;51.564;5.460;2023-07-31T09:40:50;11.63;;;6.63;;
58472;SDS011;44775;51.564;5.460;2023-07-31T09:43:19;9.95;;;6.60;;
58472;SDS011;44775;51.564;5.460;2023-07-31T09:45:45;9.05;;;6.40;;
58472;SDS011;44775;51.564;5.460;2023-07-31T09:48:15;11.88;;;6.30;;
58472;SDS011;44775;51.564;5.460;2023-07-31T09:50:42;9.23;;;6.05;;
58472;SDS011;44775;51.564;5.460;2023-07-31T09:53:09;13.23;;;6.72;;
58472;SDS011;44775;51.564;5.460;2023-07-31T09:55:35;9.52;;;6.55;;
58472;SDS011;44775;51.564;5.460;2023-07-31T09:58:05;9.43;;;6.13;;
58472;SDS011;44775;51.564;5.460;2023-07-31T10:00:33;9.48;;;5.82;;
58472;SDS011;44775;51.564;5.460;2023-07-31T10:03:00;11.60;;;5.47;;
58472;SDS011;44775;51.564;5.460;2023-07-31T10:05:30;10.07;;;5.97;;
58472;SDS011;44775;51.564;5.460;2023-07-31T10:07:58;10.13;;;5.50;;
58472;SDS011;44775;51.564;5.460;2023-07-31T10:10:25;10.27;;;5.78;;
58472;SDS011;44775;51.564;5.460;2023-07-31T10:12:51;10.80;;;5.53;;
58472;SDS011;44775;51.564;5.460;2023-07-31T10:15:17;10.77;;;5.80;;
58472;SDS011;44775;51.564;5.460;2023-07-31T10:17:43;9.75;;;5.00;;
58472;SDS011;44775;51.564;5.460;2023-07-31T10:20:11;8.07;;;5.20;;
58472;SDS011;44775;51.564;5.460;2023-07-31T10:22:37;9.77;;;5.10;;
58472;SDS011;44775;51.564;5.460;2023-07-31T10:25:03;8.32;;;4.70;;
58472;SDS011;44775;51.564;5.460;2023-07-31T10:27:29;9.73;;;4.32;;
58472;SDS011;44775;51.564;5.460;2023-07-31T10:29:56;7.35;;;4.60;;
58472;SDS011;44775;51.564;5.460;2023-07-31T10:32:23;8.43;;;4.78;;
58472;SDS011;44775;51.564;5.460;2023-07-31T10:34:51;7.75;;;4.00;;
58472;SDS011;44775;51.564;5.460;2023-07-31T10:42:27;6.22;;;4.20;;
58472;SDS011;44775;51.564;5.460;2023-07-31T10:44:56;9.98;;;4.32;;
58472;SDS011;44775;51.564;5.460;2023-07-31T10:47:23;8.35;;;4.13;;
58472;SDS011;44775;51.564;5.460;2023-07-31T10:49:48;8.35;;;3.88;;
58472;SDS011;44775;51.564;5.460;2023-07-31T10:52:14;6.88;;;4.03;;
58472;SDS011;44775;51.564;5.460;2023-07-31T10:54:47;6.43;;;4.13;;
58472;SDS011;44775;51.564;5.460;2023-07-31T10:57:20;6.85;;;4.40;;
58472;SDS011;44775;51.564;5.460;2023-07-31T10:59:47;8.32;;;4.07;;
58472;SDS011;44775;51.564;5.460;2023-07-31T11:02:24;9.05;;;4.22;;
58472;SDS011;44775;51.564;5.460;2023-07-31T11:05:06;6.18;;;4.20;;
58472;SDS011;44775;51.564;5.460;2023-07-31T11:10:15;7.75;;;4.20;;
58472;SDS011;44775;51.564;5.460;2023-07-31T11:15:07;6.70;;;4.55;;
58472;SDS011;44775;51.564;5.460;2023-07-31T11:17:33;12.55;;;5.05;;
58472;SDS011;44775;51.564;5.460;2023-07-31T11:19:58;9.27;;;4.50;;
58472;SDS011;44775;51.564;5.460;2023-07-31T11:22:23;9.98;;;4.60;;
58472;SDS011;44775;51.564;5.460;2023-07-31T11:24:49;6.10;;;4.20;;
58472;SDS011;44775;51.564;5.460;2023-07-31T11:27:14;8.98;;;4.85;;
58472;SDS011;44775;51.564;5.460;2023-07-31T11:29:40;6.28;;;4.32;;
58472;SDS011;44775;51.564;5.460;2023-07-31T11:32:08;7.20;;;4.40;;
58472;SDS011;44775;51.564;5.460;2023-07-31T11:34:54;7.90;;;4.30;;
58472;SDS011;44775;51.564;5.460;2023-07-31T11:37:20;7.90;;;4.68;;
58472;SDS011;44775;51.564;5.460;2023-07-31T11:39:58;7.40;;;4.68;;
58472;SDS011;44775;51.564;5.460;2023-07-31T11:42:24;7.57;;;4.63;;
58472;SDS011;44775;51.564;5.460;2023-07-31T11:44:50;6.03;;;4.18;;
58472;SDS011;44775;51.564;5.460;2023-07-31T11:47:15;9.73;;;4.70;;
58472;SDS011;44775;51.564;5.460;2023-07-31T11:49:41;5.47;;;3.33;;
58472;SDS011;44775;51.564;5.460;2023-07-31T11:52:07;8.57;;;4.20;;
58472;SDS011;44775;51.564;5.460;2023-07-31T11:54:32;6.80;;;3.72;;
58472;SDS011;44775;51.564;5.460;2023-07-31T11:56:58;4.25;;;2.80;;
58472;SDS011;44775;51.564;5.460;2023-07-31T11:59:25;5.77;;;3.27;;
58472;SDS011;44775;51.564;5.460;2023-07-31T12:01:51;4.90;;;3.55;;
58472;SDS011;44775;51.564;5.460;2023-07-31T12:04:18;4.72;;;3.15;;
58472;SDS011;44775;51.564;5.460;2023-07-31T12:06:45;5.47;;;3.00;;
58472;SDS011;44775;51.564;5.460;2023-07-31T12:09:10;5.28;;;3.20;;
58472;SDS011;44775;51.564;5.460;2023-07-31T12:11:45;5.15;;;3.30;;
58472;SDS011;44775;51.564;5.460;2023-07-31T12:14:21;7.13;;;3.90;;
58472;SDS011;44775;51.564;5.460;2023-07-31T12:16:52;6.68;;;3.65;;
58472;SDS011;44775;51.564;5.460;2023-07-31T12:19:22;6.82;;;4.10;;
58472;SDS011;44775;51.564;5.460;2023-07-31T12:21:49;6.60;;;4.22;;
58472;SDS011;44775;51.564;5.460;2023-07-31T12:24:14;8.07;;;4.57;;
58472;SDS011;44775;51.564;5.460;2023-07-31T12:26:45;8.02;;;3.75;;
58472;SDS011;44775;51.564;5.460;2023-07-31T12:29:13;8.10;;;4.68;;
58472;SDS011;44775;51.564;5.460;2023-07-31T12:31:40;6.93;;;4.60;;
58472;SDS011;44775;51.564;5.460;2023-07-31T12:34:14;8.60;;;4.82;;
58472;SDS011;44775;51.564;5.460;2023-07-31T12:36:42;7.65;;;4.43;;
58472;SDS011;44775;51.564;5.460;2023-07-31T12:39:07;8.32;;;5.05;;
58472;SDS011;44775;51.564;5.460;2023-07-31T12:41:33;8.63;;;5.13;;
58472;SDS011;44775;51.564;5.460;2023-07-31T12:43:58;8.40;;;5.20;;
58472;SDS011;44775;51.564;5.460;2023-07-31T12:46:23;8.40;;;5.35;;
58472;SDS011;44775;51.564;5.460;2023-07-31T12:48:49;7.45;;;5.07;;
58472;SDS011;44775;51.564;5.460;2023-07-31T12:51:14;8.50;;;5.75;;
58472;SDS011;44775;51.564;5.460;2023-07-31T12:53:39;10.40;;;6.03;;
58472;SDS011;44775;51.564;5.460;2023-07-31T12:56:05;9.68;;;6.35;;
58472;SDS011;44775;51.564;5.460;2023-07-31T12:58:30;13.13;;;6.82;;
58472;SDS011;44775;51.564;5.460;2023-07-31T13:00:55;12.32;;;6.57;;
58472;SDS011;44775;51.564;5.460;2023-07-31T13:03:21;9.60;;;6.40;;
58472;SDS011;44775;51.564;5.460;2023-07-31T13:05:46;11.73;;;7.00;;
58472;SDS011;44775;51.564;5.460;2023-07-31T13:08:12;11.50;;;7.15;;
58472;SDS011;44775;51.564;5.460;2023-07-31T13:10:37;15.18;;;7.50;;
58472;SDS011;44775;51.564;5.460;2023-07-31T13:13:02;11.07;;;4.88;;
58472;SDS011;44775;51.564;5.460;2023-07-31T13:15:28;13.45;;;7.13;;
58472;SDS011;44775;51.564;5.460;2023-07-31T13:17:53;10.50;;;6.72;;
58472;SDS011;44775;51.564;5.460;2023-07-31T13:20:19;12.68;;;6.47;;
58472;SDS011;44775;51.564;5.460;2023-07-31T13:22:44;10.05;;;6.47;;
58472;SDS011;44775;51.564;5.460;2023-07-31T13:25:09;13.77;;;6.55;;
58472;SDS011;44775;51.564;5.460;2023-07-31T13:27:35;13.38;;;6.25;;
58472;SDS011;44775;51.564;5.460;2023-07-31T13:30:00;12.50;;;6.03;;
58472;SDS011;44775;51.564;5.460;2023-07-31T13:32:26;12.55;;;5.57;;
58472;SDS011;44775;51.564;5.460;2023-07-31T13:34:51;11.07;;;5.85;;
58472;SDS011;44775;51.564;5.460;2023-07-31T13:37:17;11.30;;;5.68;;
58472;SDS011;44775;51.564;5.460;2023-07-31T13:39:42;12.25;;;5.63;;
58472;SDS011;44775;51.564;5.460;2023-07-31T13:42:08;10.15;;;5.75;;
58472;SDS011;44775;51.564;5.460;2023-07-31T13:44:36;15.05;;;6.40;;
58472;SDS011;44775;51.564;5.460;2023-07-31T13:47:02;12.18;;;6.43;;
58472;SDS011;44775;51.564;5.460;2023-07-31T13:49:28;15.15;;;6.15;;
58472;SDS011;44775;51.564;5.460;2023-07-31T13:51:55;11.10;;;6.38;;
58472;SDS011;44775;51.564;5.460;2023-07-31T13:54:20;13.65;;;7.07;;
58472;SDS011;44775;51.564;5.460;2023-07-31T13:56:45;12.98;;;7.50;;
58472;SDS011;44775;51.564;5.460;2023-07-31T13:59:11;13.35;;;6.72;;
58472;SDS011;44775;51.564;5.460;2023-07-31T14:01:36;13.48;;;7.05;;
58472;SDS011;44775;51.564;5.460;2023-07-31T14:04:02;11.52;;;6.45;;
58472;SDS011;44775;51.564;5.460;2023-07-31T14:06:28;15.25;;;7.03;;
58472;SDS011;44775;51.564;5.460;2023-07-31T14:08:53;12.30;;;7.03;;
58472;SDS011;44775;51.564;5.460;2023-07-31T14:11:19;12.95;;;7.80;;
58472;SDS011;44775;51.564;5.460;2023-07-31T14:13:44;16.65;;;8.30;;
58472;SDS011;44775;51.564;5.460;2023-07-31T14:16:09;13.70;;;7.57;;
58472;SDS011;44775;51.564;5.460;2023-07-31T14:18:35;18.05;;;8.52;;
58472;SDS011;44775;51.564;5.460;2023-07-31T14:21:00;13.48;;;8.07;;
58472;SDS011;44775;51.564;5.460;2023-07-31T14:23:25;17.88;;;8.52;;
58472;SDS011;44775;51.564;5.460;2023-07-31T14:25:51;15.18;;;8.63;;
58472;SDS011;44775;51.564;5.460;2023-07-31T14:28:16;13.55;;;8.10;;
58472;SDS011;44775;51.564;5.460;2023-07-31T14:30:41;16.83;;;8.77;;
58472;SDS011;44775;51.564;5.460;2023-07-31T14:33:07;16.48;;;7.88;;
58472;SDS011;44775;51.564;5.460;2023-07-31T14:35:32;16.23;;;8.43;;
58472;SDS011;44775;51.564;5.460;2023-07-31T14:37:59;11.75;;;7.15;;
58472;SDS011;44775;51.564;5.460;2023-07-31T14:40:24;18.13;;;8.13;;
58472;SDS011;44775;51.564;5.460;2023-07-31T14:42:49;14.15;;;7.40;;
58472;SDS011;44775;51.564;5.460;2023-07-31T14:45:15;14.82;;;7.95;;
58472;SDS011;44775;51.564;5.460;2023-07-31T14:47:40;12.80;;;7.00;;
58472;SDS011;44775;51.564;5.460;2023-07-31T14:50:05;13.70;;;7.43;;
58472;SDS011;44775;51.564;5.460;2023-07-31T14:52:31;11.70;;;7.03;;